Terminal Aerodrome Forecast
Issued by NWS Sterling, VA

Home | Current Version | Previous Version | Text Only | Print | Product List | Glossary On
Versions: 1 2 3 4 5 6 7 8 9 10 11 12 13 14 15 16 17
000
FTUS41 KLWX 040542 RRA
TAFCHO
TAF
KCHO 040542Z 0406/0506 VRB03KT 5SM -SHRA BR OVC015
     FM040700 VRB03KT 3SM BR OVC008
     FM041300 00000KT P6SM OVC050
     FM041600 00000KT P6SM SHRA VCTS OVC050CB
     FM041900 24004KT 5SM SHRA BKN050
     FM042200 32005KT P6SM BKN050
     FM050200 VRB03KT 5SM BR BKN050
     FM050500 00000KT 5SM BR SCT050=

USA.gov is the U.S. government's official web portal to all federal, state and local government web resources and services.